Time;durP1;ratioP1;P1;durP2;ratioP2;P2;SDS_P1;SDS_P2;PMS_P1;PMS_P2;Temp;Humidity;BMP_temperature;BMP_pressure;BME280_temperature;BME280_humidity;BME280_pressure;Samples;Min_cycle;Max_cycle;Signal;HPM_P1;HPM_P2
2022/02/13 08:34:40;;;;;;;5.67;1.93;;;5.20;99.90;;;;;;3156351;23;20235;-71
2022/02/13 08:37:08;;;;;;;2.37;1.53;;;5.50;99.90;;;;;;4994252;28;20222;-73
2022/02/13 08:39:35;;;;;;;2.37;1.30;;;5.70;99.90;;;;;;4992159;28;20561;-72
2022/02/13 08:42:02;;;;;;;5.23;1.70;;;6.00;99.90;;;;;;4981812;28;20233;-74
2022/02/13 08:44:29;;;;;;;2.43;1.60;;;6.20;99.90;;;;;;4974605;28;20211;-73
2022/02/13 08:46:55;;;;;;;2.00;1.30;;;6.30;99.90;;;;;;4966591;28;20696;-73
2022/02/13 08:49:22;;;;;;;3.57;1.50;;;6.40;99.90;;;;;;4973369;28;20225;-73
2022/02/13 08:51:49;;;;;;;3.63;1.83;;;6.70;99.90;;;;;;4958737;28;20223;-69
2022/02/13 08:54:17;;;;;;;4.50;1.77;;;6.70;99.90;;;;;;4975461;28;20734;-73
2022/02/13 08:56:44;;;;;;;2.57;1.57;;;7.10;99.90;;;;;;4975434;28;20539;-73
2022/02/13 08:59:11;;;;;;;3.47;1.77;;;7.20;99.90;;;;;;4975596;28;20203;-71
2022/02/13 09:01:37;;;;;;;2.33;1.83;;;7.30;99.90;;;;;;4975532;28;20231;-73
2022/02/13 09:04:05;;;;;;;4.10;1.70;;;7.30;99.90;;;;;;4972139;28;20200;-69
2022/02/13 09:06:32;;;;;;;4.20;1.53;;;7.50;99.90;;;;;;4956063;29;20216;-73
2022/02/13 09:08:58;;;;;;;4.03;1.53;;;7.50;99.90;;;;;;4955942;29;20214;-69
2022/02/13 09:11:26;;;;;;;2.57;1.63;;;7.30;99.90;;;;;;4955554;28;20232;-70
2022/02/13 09:13:54;;;;;;;2.67;1.73;;;7.30;99.90;;;;;;4960438;28;20677;-72
2022/02/13 09:16:20;;;;;;;3.70;1.50;;;7.20;99.90;;;;;;4973102;28;20363;-73
2022/02/13 09:18:47;;;;;;;3.27;1.60;;;7.20;99.90;;;;;;4975191;28;20237;-69
2022/02/13 09:21:14;;;;;;;2.43;1.57;;;7.20;99.90;;;;;;4966431;28;20705;-73
2022/02/13 09:23:41;;;;;;;2.93;1.60;;;7.10;99.90;;;;;;4965890;28;20556;-72
2022/02/13 09:26:08;;;;;;;4.00;1.77;;;6.90;99.90;;;;;;4963716;28;20212;-69
2022/02/13 09:28:37;;;;;;;3.43;1.60;;;6.90;99.90;;;;;;4962632;28;20200;-70
2022/02/13 09:31:04;;;;;;;5.27;1.60;;;7.00;99.90;;;;;;4968663;28;20627;-72
2022/02/13 09:33:31;;;;;;;3.50;1.80;;;7.10;99.90;;;;;;4964550;28;20208;-72
2022/02/13 09:35:57;;;;;;;3.77;2.00;;;7.20;99.90;;;;;;4954975;28;20232;-72
2022/02/13 09:38:24;;;;;;;2.77;1.63;;;7.30;99.90;;;;;;4971862;28;20226;-70
2022/02/13 09:40:51;;;;;;;3.13;1.70;;;7.30;99.90;;;;;;4974480;28;20233;-71
2022/02/13 09:43:21;;;;;;;4.13;1.67;;;7.30;99.90;;;;;;4973962;28;20214;-72
2022/02/13 09:45:52;;;;;;;2.43;1.40;;;7.40;99.90;;;;;;4974596;28;20622;-71
2022/02/13 09:48:20;;;;;;;2.37;0.97;;;7.50;99.90;;;;;;4974271;28;20222;-69
2022/02/13 09:50:47;;;;;;;2.50;1.60;;;7.40;99.90;;;;;;4955648;28;20224;-72
2022/02/13 09:53:16;;;;;;;3.53;1.93;;;7.30;99.90;;;;;;4954972;28;20577;-72
2022/02/13 09:55:43;;;;;;;2.53;1.43;;;7.30;99.90;;;;;;4955283;28;20204;-70
2022/02/13 09:58:10;;;;;;;3.03;1.60;;;7.30;99.90;;;;;;4955099;28;20240;-70
2022/02/13 10:00:51;;;;;;;2.60;1.33;;;7.40;99.90;;;;;;4954916;28;20212;-72
2022/02/13 10:03:19;;;;;;;3.57;1.40;;;7.50;99.90;;;;;;4954977;28;20667;-72
2022/02/13 10:05:46;;;;;;;2.87;1.90;;;7.50;99.90;;;;;;4954774;28;20220;-72
2022/02/13 10:08:25;;;;;;;1.33;0.97;;;7.50;99.90;;;;;;4954970;29;20208;-73
2022/02/13 10:11:07;;;;;;;2.80;1.67;;;7.40;99.90;;;;;;4954646;28;20227;-70
2022/02/13 10:13:42;;;;;;;3.07;1.50;;;7.50;99.90;;;;;;4954768;29;20544;-72
2022/02/13 10:16:18;;;;;;;3.17;1.40;;;7.60;99.90;;;;;;4954812;28;20670;-71
2022/02/13 10:18:50;;;;;;;1.53;1.10;;;7.80;99.90;;;;;;4954718;28;20232;-71
2022/02/13 10:21:31;;;;;;;2.30;1.50;;;8.00;99.90;;;;;;4954447;28;20699;-72
2022/02/13 10:24:18;;;;;;;3.87;1.47;;;8.00;99.90;;;;;;4954332;29;20299;-70
2022/02/13 10:26:47;;;;;;;2.53;1.60;;;7.90;99.90;;;;;;4968887;28;20203;-72
2022/02/13 10:29:14;;;;;;;2.53;1.40;;;7.90;99.90;;;;;;4973834;28;20213;-70
2022/02/13 10:31:44;;;;;;;5.27;1.30;;;7.90;99.90;;;;;;4974390;28;20237;-72
2022/02/13 10:34:13;;;;;;;2.93;1.60;;;8.00;99.90;;;;;;4973859;28;20614;-70
2022/02/13 10:36:41;;;;;;;1.53;0.93;;;8.20;99.90;;;;;;4973411;28;20211;-70
2022/02/13 10:39:19;;;;;;;4.13;1.47;;;8.10;99.90;;;;;;4972008;28;20235;-71
2022/02/13 10:41:46;;;;;;;2.60;1.70;;;8.20;99.90;;;;;;4972507;28;20729;-73
2022/02/13 10:44:13;;;;;;;2.10;1.30;;;8.20;99.90;;;;;;4974163;28;20223;-74
2022/02/13 10:46:41;;;;;;;2.23;1.47;;;8.20;99.90;;;;;;4967991;28;20204;-71
2022/02/13 10:49:10;;;;;;;7.73;1.40;;;8.20;99.90;;;;;;4965997;28;20563;-71
2022/02/13 10:51:38;;;;;;;2.50;1.33;;;8.20;99.90;;;;;;4954187;28;20279;-74
2022/02/13 10:54:05;;;;;;;2.70;1.40;;;8.30;99.90;;;;;;4969247;28;20203;-70
2022/02/13 10:56:35;;;;;;;3.07;1.27;;;8.40;99.90;;;;;;4970350;28;20684;-71
2022/02/13 10:59:02;;;;;;;5.23;1.30;;;8.50;99.90;;;;;;4965901;28;20228;-72
2022/02/13 11:01:29;;;;;;;3.03;1.50;;;8.60;99.90;;;;;;4973131;28;20233;-74
2022/02/13 11:04:03;;;;;;;3.27;1.47;;;8.70;99.90;;;;;;4967629;28;20212;-72
2022/02/13 11:06:32;;;;;;;1.73;1.23;;;8.60;99.90;;;;;;4965185;28;20212;-73
2022/02/13 11:09:07;;;;;;;2.70;1.40;;;8.60;99.90;;;;;;4957896;28;20212;-74
2022/02/13 11:11:35;;;;;;;2.00;1.23;;;8.70;99.90;;;;;;4957925;28;20575;-70
2022/02/13 11:14:01;;;;;;;1.80;0.97;;;8.80;99.90;;;;;;4957154;29;20219;-70
2022/02/13 11:16:33;;;;;;;3.80;1.20;;;8.90;99.90;;;;;;4956240;28;20212;-70
2022/02/13 11:19:04;;;;;;;2.37;1.20;;;8.90;99.90;;;;;;4957326;28;20262;-71
2022/02/13 11:21:33;;;;;;;2.73;1.20;;;9.00;99.90;;;;;;4958193;28;20235;-72
2022/02/13 11:24:02;;;;;;;3.23;1.40;;;9.00;99.90;;;;;;4957779;28;20208;-70
2022/02/13 11:26:41;;;;;;;2.20;1.00;;;9.10;99.90;;;;;;4957904;28;20562;-70
2022/02/13 11:29:10;;;;;;;2.43;1.00;;;9.20;99.90;;;;;;4958277;29;20631;-75
2022/02/13 11:31:45;;;;;;;1.90;1.20;;;9.10;99.90;;;;;;4958022;28;20234;-70
2022/02/13 11:34:15;;;;;;;2.37;1.10;;;9.30;99.90;;;;;;4957986;28;20242;-73
2022/02/13 11:36:48;;;;;;;2.53;1.30;;;9.30;99.90;;;;;;4957759;29;20208;-69
2022/02/13 11:39:37;;;;;;;3.17;1.20;;;9.30;99.90;;;;;;4957583;29;20711;-75
2022/02/13 11:42:06;;;;;;;2.13;1.20;;;9.40;99.90;;;;;;4957747;28;20344;-72
2022/02/13 11:44:39;;;;;;;4.77;1.43;;;9.60;99.90;;;;;;4957669;28;20208;-72
2022/02/13 11:47:07;;;;;;;2.33;1.20;;;9.80;99.90;;;;;;4957812;28;20236;-70
2022/02/13 11:50:21;;;;;;;1.93;1.30;;;9.80;99.90;;;;;;4957930;28;20247;-73
2022/02/13 11:53:07;;;;;;;2.23;1.40;;;9.90;99.90;;;;;;4957752;28;20260;-71
2022/02/13 11:55:36;;;;;;;2.17;1.40;;;9.80;99.90;;;;;;4957429;29;20303;-69
2022/02/13 11:58:14;;;;;;;3.73;1.63;;;9.80;99.90;;;;;;4957138;28;20228;-73
2022/02/13 12:00:46;;;;;;;2.50;1.60;;;9.90;99.90;;;;;;4957504;28;20247;-70
2022/02/13 12:03:22;;;;;;;5.57;1.63;;;9.90;99.90;;;;;;4967390;28;20578;-69
2022/02/13 12:06:22;;;;;;;2.13;1.33;;;9.80;99.90;;;;;;4973805;28;20203;-72
2022/02/13 12:08:50;;;;;;;3.30;1.90;;;9.70;99.90;;;;;;4971122;28;20203;-71
2022/02/13 12:11:18;;;;;;;7.00;1.80;;;9.50;99.90;;;;;;4976405;28;20228;-73
2022/02/13 12:13:45;;;;;;;4.07;1.70;;;9.60;99.90;;;;;;4976585;28;20233;-69
2022/02/13 12:16:12;;;;;;;3.37;1.60;;;9.70;99.90;;;;;;4976581;28;20238;-70
2022/02/13 12:18:39;;;;;;;2.20;1.40;;;9.70;99.90;;;;;;4976322;28;20234;-73
2022/02/13 12:21:08;;;;;;;3.80;1.57;;;9.70;99.90;;;;;;4976371;28;20254;-73
2022/02/13 12:23:35;;;;;;;2.67;1.33;;;9.80;99.90;;;;;;4976298;28;20214;-70
2022/02/13 12:26:05;;;;;;;3.17;1.67;;;9.90;99.90;;;;;;4976036;28;20214;-72
2022/02/13 12:28:34;;;;;;;4.33;1.70;;;9.90;99.90;;;;;;4976088;28;20226;-69
2022/02/13 12:31:03;;;;;;;2.83;1.73;;;9.90;99.90;;;;;;4976190;28;20239;-70
2022/02/13 12:33:31;;;;;;;6.00;1.70;;;9.90;99.90;;;;;;4976079;28;20212;-71
2022/02/13 12:35:59;;;;;;;3.87;2.03;;;9.90;99.90;;;;;;4976056;28;20638;-70
2022/02/13 12:38:28;;;;;;;3.47;1.50;;;10.00;99.90;;;;;;4975845;28;20231;-74
2022/02/13 12:40:57;;;;;;;3.43;1.83;;;10.10;99.90;;;;;;4976021;28;20227;-74
2022/02/13 12:43:25;;;;;;;3.97;1.50;;;10.20;99.90;;;;;;4976069;28;20207;-76
2022/02/13 12:45:55;;;;;;;5.30;2.00;;;10.20;99.90;;;;;;4969609;28;20216;-74
2022/02/13 12:48:25;;;;;;;4.77;2.10;;;10.20;99.90;;;;;;4971273;28;20266;-68
2022/02/13 12:50:55;;;;;;;2.50;1.30;;;10.30;99.90;;;;;;4973962;28;20243;-68
2022/02/13 12:53:24;;;;;;;2.80;1.40;;;10.30;99.90;;;;;;4974547;28;20207;-73
2022/02/13 12:55:51;;;;;;;2.43;1.50;;;10.20;99.90;;;;;;4974015;28;20617;-70
2022/02/13 12:58:18;;;;;;;7.00;1.40;;;10.20;99.90;;;;;;4973200;28;20314;-69
2022/02/13 13:00:48;;;;;;;2.87;1.87;;;10.20;99.90;;;;;;4973767;28;20227;-70
2022/02/13 13:03:19;;;;;;;2.63;1.50;;;10.20;99.90;;;;;;4972942;28;20207;-71
2022/02/13 13:05:47;;;;;;;2.80;1.57;;;10.10;99.90;;;;;;4973704;28;20211;-69
2022/02/13 13:08:16;;;;;;;2.27;1.43;;;10.10;99.90;;;;;;4973696;28;20207;-70
2022/02/13 13:10:51;;;;;;;3.87;1.63;;;10.10;99.90;;;;;;4973316;28;20211;-75
2022/02/13 13:13:19;;;;;;;3.30;1.63;;;10.20;99.90;;;;;;4973654;28;20246;-73
2022/02/13 13:15:54;;;;;;;7.37;2.17;;;10.20;99.90;;;;;;4973219;28;20234;-71
2022/02/13 13:18:41;;;;;;;3.50;1.50;;;10.40;99.90;;;;;;4972290;28;20239;-69
2022/02/13 13:21:23;;;;;;;4.47;1.60;;;10.40;99.90;;;;;;4972303;28;20262;-69
2022/02/13 13:23:59;;;;;;;6.93;1.83;;;10.50;99.90;;;;;;4974746;28;20207;-69
2022/02/13 13:26:26;;;;;;;5.87;1.80;;;10.40;99.90;;;;;;4974192;28;20555;-72
2022/02/13 13:28:52;;;;;;;5.20;1.60;;;10.40;99.90;;;;;;4974223;28;20308;-70
2022/02/13 13:31:21;;;;;;;4.13;1.70;;;10.50;99.90;;;;;;4974033;28;20227;-72
2022/02/13 13:33:49;;;;;;;4.67;1.23;;;10.50;99.90;;;;;;4973595;28;20254;-73
2022/02/13 13:36:27;;;;;;;2.00;1.40;;;10.50;99.90;;;;;;4974798;28;20210;-71
2022/02/13 13:38:54;;;;;;;4.80;1.43;;;10.50;99.90;;;;;;4974602;28;20231;-70
2022/02/13 13:41:34;;;;;;;1.80;1.00;;;10.60;99.90;;;;;;4974458;28;20691;-72
2022/02/13 13:44:18;;;;;;;3.17;1.47;;;10.60;99.90;;;;;;4974720;28;20602;-73
2022/02/13 13:46:48;;;;;;;4.97;1.60;;;10.50;99.90;;;;;;4974708;28;20214;-74
2022/02/13 13:49:15;;;;;;;5.30;1.63;;;10.40;99.90;;;;;;4974392;28;20207;-71
2022/02/13 13:51:43;;;;;;;2.97;1.43;;;10.50;99.90;;;;;;4974123;28;20728;-72
2022/02/13 13:54:09;;;;;;;4.63;1.30;;;10.60;99.90;;;;;;4971395;28;20204;-71
2022/02/13 13:56:36;;;;;;;2.77;1.67;;;10.60;99.90;;;;;;4962805;28;20662;-73
2022/02/13 13:59:03;;;;;;;5.00;1.50;;;10.60;99.90;;;;;;4964328;28;20246;-73
2022/02/13 14:01:30;;;;;;;4.77;1.70;;;10.60;99.90;;;;;;4968217;28;20226;-72
2022/02/13 14:03:58;;;;;;;4.30;1.50;;;10.50;99.90;;;;;;4965437;28;20207;-73
2022/02/13 14:06:25;;;;;;;4.43;1.57;;;10.50;99.90;;;;;;4956009;28;20210;-71
2022/02/13 14:08:52;;;;;;;5.63;1.60;;;10.60;99.90;;;;;;4970202;28;20685;-71
2022/02/13 14:11:18;;;;;;;5.50;2.00;;;10.60;99.90;;;;;;4965241;28;20594;-71
2022/02/13 14:13:45;;;;;;;2.63;1.43;;;10.60;99.90;;;;;;4965110;28;20204;-72
2022/02/13 14:16:12;;;;;;;2.03;1.17;;;10.60;99.90;;;;;;4966563;28;20569;-73
2022/02/13 14:18:39;;;;;;;4.43;1.90;;;10.40;99.90;;;;;;4954913;29;20243;-72
2022/02/13 14:21:08;;;;;;;3.20;1.47;;;10.40;99.90;;;;;;4965392;28;20627;-71
2022/02/13 14:23:35;;;;;;;4.23;1.90;;;10.30;99.90;;;;;;4959773;28;20212;-72
2022/02/13 14:26:02;;;;;;;7.27;2.10;;;10.40;99.90;;;;;;4973308;28;20262;-72
2022/02/13 14:28:29;;;;;;;5.90;1.73;;;10.40;99.90;;;;;;4969495;28;20206;-71
2022/02/13 14:30:56;;;;;;;5.67;2.27;;;10.50;99.90;;;;;;4966463;28;20219;-73
2022/02/13 14:33:22;;;;;;;9.47;2.40;;;10.40;99.90;;;;;;4965994;28;20557;-73
2022/02/13 14:35:49;;;;;;;4.83;2.17;;;10.50;99.90;;;;;;4963022;28;20218;-73
2022/02/13 14:38:17;;;;;;;3.10;1.93;;;10.50;99.90;;;;;;4973182;28;20210;-73
2022/02/13 14:40:44;;;;;;;3.70;1.83;;;10.50;99.90;;;;;;4972060;28;20242;-74
2022/02/13 14:43:11;;;;;;;3.87;1.77;;;10.60;99.90;;;;;;4972854;28;20207;-72
2022/02/13 14:45:38;;;;;;;2.57;1.50;;;10.50;99.90;;;;;;4973834;28;20211;-74
2022/02/13 14:48:05;;;;;;;4.20;1.60;;;10.50;99.90;;;;;;4974040;28;20214;-73
2022/02/13 14:50:33;;;;;;;3.83;1.87;;;10.60;99.90;;;;;;4973643;28;20218;-75
2022/02/13 14:53:00;;;;;;;5.30;2.20;;;10.50;99.90;;;;;;4974015;28;20207;-74
2022/02/13 14:55:28;;;;;;;3.80;2.10;;;10.60;99.90;;;;;;4973915;28;20614;-71
2022/02/13 14:57:55;;;;;;;4.60;1.57;;;10.60;99.90;;;;;;4973785;28;20234;-74
2022/02/13 15:00:22;;;;;;;2.90;1.70;;;10.60;99.90;;;;;;4973477;28;20235;-72
2022/02/13 15:02:49;;;;;;;4.43;1.73;;;10.70;99.90;;;;;;4973730;28;20227;-74
2022/02/13 15:05:16;;;;;;;4.77;1.80;;;10.80;99.90;;;;;;4973517;28;20207;-74
2022/02/13 15:07:44;;;;;;;3.97;1.83;;;10.90;99.90;;;;;;4973448;28;21153;-73
2022/02/13 15:10:11;;;;;;;6.93;1.93;;;10.90;99.90;;;;;;4973480;28;20211;-74
2022/02/13 15:12:39;;;;;;;4.13;1.40;;;11.00;99.90;;;;;;4973711;28;20233;-75
2022/02/13 15:15:07;;;;;;;5.87;1.93;;;11.10;99.90;;;;;;4973528;28;20701;-75
2022/02/13 15:17:33;;;;;;;4.40;1.27;;;11.20;99.90;;;;;;4973756;28;20754;-75
2022/02/13 15:20:01;;;;;;;3.60;1.47;;;11.30;99.90;;;;;;4973120;28;20242;-75
2022/02/13 15:22:27;;;;;;;4.57;1.73;;;11.30;99.90;;;;;;4973623;28;20578;-74
2022/02/13 15:24:54;;;;;;;5.70;1.40;;;11.30;99.90;;;;;;4973383;28;20656;-72
2022/02/13 15:27:21;;;;;;;4.70;1.60;;;11.30;99.90;;;;;;4964804;28;20200;-73
2022/02/13 15:29:55;;;;;;;3.30;1.53;;;11.30;99.90;;;;;;4962816;28;20209;-72
2022/02/13 15:32:22;;;;;;;2.80;1.13;;;11.20;99.90;;;;;;4963829;28;20227;-72
2022/02/13 15:34:49;;;;;;;3.10;1.47;;;11.20;99.90;;;;;;4958263;28;20572;-71
2022/02/13 15:37:15;;;;;;;2.27;1.20;;;11.10;99.90;;;;;;4962471;28;20207;-74
2022/02/13 15:39:42;;;;;;;3.30;1.40;;;11.10;99.90;;;;;;4956673;28;20236;-74
2022/02/13 15:42:09;;;;;;;3.37;1.50;;;11.00;99.90;;;;;;4960972;28;20211;-73
2022/02/13 15:44:36;;;;;;;3.23;1.13;;;11.00;99.90;;;;;;4976516;28;20574;-74
2022/02/13 15:47:05;;;;;;;4.43;1.20;;;11.00;99.90;;;;;;4976486;28;20266;-74
2022/02/13 15:49:32;;;;;;;3.00;1.40;;;10.80;99.90;;;;;;4976242;28;20569;-72
2022/02/13 15:51:59;;;;;;;6.70;1.97;;;10.90;99.90;;;;;;4976508;28;20231;-73
2022/02/13 15:54:25;;;;;;;3.43;1.40;;;10.80;99.90;;;;;;4971538;28;20659;-73
2022/02/13 15:56:54;;;;;;;5.83;1.53;;;10.80;99.90;;;;;;4957036;28;20212;-74
2022/02/13 15:59:21;;;;;;;5.77;1.70;;;10.80;99.90;;;;;;4959585;28;20224;-73
2022/02/13 16:01:48;;;;;;;5.23;1.40;;;10.80;99.90;;;;;;4965493;28;20687;-71
2022/02/13 16:04:16;;;;;;;6.57;1.40;;;10.70;99.90;;;;;;4957276;28;20208;-74
2022/02/13 16:06:43;;;;;;;3.03;1.33;;;10.60;99.90;;;;;;4974000;28;20203;-74
2022/02/13 16:09:10;;;;;;;3.90;1.50;;;10.60;99.90;;;;;;4975919;28;20574;-74
2022/02/13 16:11:37;;;;;;;3.00;1.60;;;10.60;99.90;;;;;;4975891;28;20231;-71
2022/02/13 16:14:04;;;;;;;9.00;1.90;;;10.60;99.90;;;;;;4975704;28;20213;-73
2022/02/13 16:16:30;;;;;;;5.13;1.67;;;10.50;99.90;;;;;;4975955;28;20211;-71
2022/02/13 16:18:57;;;;;;;4.70;1.60;;;10.50;99.90;;;;;;4970084;28;20203;-73
2022/02/13 16:21:25;;;;;;;5.07;1.80;;;10.50;99.90;;;;;;4968108;28;20716;-72
2022/02/13 16:24:04;;;;;;;8.00;1.80;;;10.40;99.90;;;;;;4956291;28;20208;-72
2022/02/13 16:26:32;;;;;;;3.57;1.53;;;10.30;99.90;;;;;;4965439;28;20241;-72
2022/02/13 16:28:59;;;;;;;6.10;1.60;;;10.30;99.90;;;;;;4976007;28;20215;-73
2022/02/13 16:31:26;;;;;;;5.10;1.40;;;10.30;99.90;;;;;;4975865;28;20223;-73
2022/02/13 16:33:53;;;;;;;1.47;1.17;;;10.40;99.90;;;;;;4975760;28;20211;-73
2022/02/13 16:36:20;;;;;;;7.00;2.00;;;10.30;99.90;;;;;;4965903;28;20209;-73
2022/02/13 16:38:51;;;;;;;6.10;1.40;;;10.30;99.90;;;;;;4964538;28;20203;-73
2022/02/13 16:41:20;;;;;;;2.77;1.40;;;10.30;99.90;;;;;;4975530;28;20370;-74
2022/02/13 16:43:47;;;;;;;4.67;1.50;;;10.30;99.90;;;;;;4959412;28;20282;-74
2022/02/13 16:46:14;;;;;;;4.73;1.87;;;10.30;99.90;;;;;;4956165;29;20204;-74
2022/02/13 16:48:41;;;;;;;4.23;1.70;;;10.30;99.90;;;;;;4956121;29;20208;-74
2022/02/13 16:51:07;;;;;;;3.80;1.80;;;10.30;99.90;;;;;;4955459;28;20232;-74
2022/02/13 16:53:39;;;;;;;4.33;1.50;;;10.30;99.90;;;;;;4956139;29;20218;-72
2022/02/13 16:56:08;;;;;;;4.33;1.60;;;10.30;99.90;;;;;;4972611;28;20586;-73
2022/02/13 16:58:35;;;;;;;5.27;1.60;;;10.40;99.90;;;;;;4974923;28;20211;-74
2022/02/13 17:01:02;;;;;;;4.47;1.40;;;10.40;99.90;;;;;;4974723;28;20239;-70
2022/02/13 17:03:29;;;;;;;3.47;1.83;;;10.40;99.90;;;;;;4975375;28;20208;-72
2022/02/13 17:05:56;;;;;;;5.63;1.70;;;10.40;99.90;;;;;;4975120;28;20207;-71
2022/02/13 17:08:23;;;;;;;4.77;1.50;;;10.40;99.90;;;;;;4974554;28;20211;-71
2022/02/13 17:10:52;;;;;;;5.33;1.53;;;10.50;99.90;;;;;;4974803;28;20227;-73
2022/02/13 17:13:21;;;;;;;5.37;1.70;;;10.50;99.90;;;;;;4975145;28;20218;-72
2022/02/13 17:15:48;;;;;;;3.17;1.63;;;10.40;99.90;;;;;;4975094;28;20214;-73
2022/02/13 17:18:15;;;;;;;4.90;1.73;;;10.40;99.90;;;;;;4975101;28;20218;-70
2022/02/13 17:20:42;;;;;;;2.20;1.30;;;10.40;99.90;;;;;;4975054;28;20243;-71
2022/02/13 17:23:09;;;;;;;3.87;1.50;;;10.40;99.90;;;;;;4974995;28;20571;-73
2022/02/13 17:25:40;;;;;;;2.40;1.50;;;10.50;99.90;;;;;;4975235;28;20218;-72
2022/02/13 17:28:08;;;;;;;3.20;1.40;;;10.50;99.90;;;;;;4975021;28;20204;-70
2022/02/13 17:30:37;;;;;;;7.73;1.60;;;10.50;99.90;;;;;;4974847;28;20590;-71
2022/02/13 17:33:04;;;;;;;3.13;1.83;;;10.50;99.90;;;;;;4974838;28;20670;-71
2022/02/13 17:35:31;;;;;;;3.10;1.53;;;10.50;99.90;;;;;;4974545;28;20219;-74
2022/02/13 17:37:58;;;;;;;6.67;1.33;;;10.50;99.90;;;;;;4975048;28;20207;-71
2022/02/13 17:40:25;;;;;;;4.30;1.50;;;10.50;99.90;;;;;;4964199;28;20235;-75
2022/02/13 17:42:52;;;;;;;2.47;1.20;;;10.50;99.90;;;;;;4973474;28;20212;-69
2022/02/13 17:45:20;;;;;;;5.07;1.50;;;10.50;99.90;;;;;;4973739;28;20211;-67
2022/02/13 17:47:48;;;;;;;2.70;1.60;;;10.50;99.90;;;;;;4973028;28;20211;-71
2022/02/13 17:50:17;;;;;;;3.27;1.57;;;10.60;99.90;;;;;;4973370;28;20211;-68
2022/02/13 17:52:45;;;;;;;4.70;1.50;;;10.60;99.90;;;;;;4959058;28;20235;-70
2022/02/13 17:55:11;;;;;;;3.00;1.70;;;10.50;99.90;;;;;;4953259;28;20216;-72
2022/02/13 17:57:39;;;;;;;4.30;1.40;;;10.60;99.90;;;;;;4955570;28;20210;-70
2022/02/13 18:00:08;;;;;;;5.57;1.43;;;10.50;99.90;;;;;;4972970;28;20328;-68
2022/02/13 18:02:36;;;;;;;2.10;1.20;;;10.60;99.90;;;;;;4971429;28;20322;-69
2022/02/13 18:05:04;;;;;;;3.73;1.93;;;10.60;99.90;;;;;;4973356;28;20210;-68
2022/02/13 18:07:32;;;;;;;3.30;1.60;;;10.60;99.90;;;;;;4973223;28;20215;-69
2022/02/13 18:10:00;;;;;;;6.17;1.53;;;10.60;99.90;;;;;;4971630;28;20215;-72
2022/02/13 18:12:27;;;;;;;2.60;1.33;;;10.60;99.90;;;;;;4972920;28;20289;-72
2022/02/13 18:14:56;;;;;;;2.13;1.37;;;10.60;99.90;;;;;;4972833;28;20203;-74
2022/02/13 18:17:24;;;;;;;3.80;1.80;;;10.60;99.90;;;;;;4972404;28;20246;-74
2022/02/13 18:19:51;;;;;;;2.33;1.47;;;10.60;99.90;;;;;;4972578;28;20306;-73
2022/02/13 18:22:21;;;;;;;5.63;1.57;;;10.60;99.90;;;;;;4972708;28;20223;-70
2022/02/13 18:24:48;;;;;;;1.90;1.23;;;10.60;99.90;;;;;;4972331;28;20203;-82
2022/02/13 18:27:15;;;;;;;2.67;1.07;;;10.60;99.90;;;;;;4972443;28;20543;-69
2022/02/13 18:29:43;;;;;;;1.83;1.13;;;10.60;99.90;;;;;;4972477;28;20210;-70
2022/02/13 18:32:11;;;;;;;2.50;1.20;;;10.60;99.90;;;;;;4972178;28;20222;-74
2022/02/13 18:34:39;;;;;;;5.23;1.80;;;10.60;99.90;;;;;;4972933;28;20219;-74
2022/02/13 18:37:06;;;;;;;4.73;1.20;;;10.60;99.90;;;;;;4972162;28;20227;-73
2022/02/13 18:39:35;;;;;;;2.97;1.40;;;10.60;99.90;;;;;;4973830;28;20211;-73
2022/02/13 18:42:02;;;;;;;5.47;1.90;;;10.60;99.90;;;;;;4973770;28;20245;-73
2022/02/13 18:44:31;;;;;;;3.73;1.40;;;10.60;99.90;;;;;;4974331;28;20207;-73
2022/02/13 18:46:58;;;;;;;4.03;1.10;;;10.70;99.90;;;;;;4974436;28;20211;-74
2022/02/13 18:49:25;;;;;;;5.43;1.87;;;10.70;99.90;;;;;;4974080;28;20207;-75
2022/02/13 18:51:52;;;;;;;3.47;1.27;;;10.60;99.90;;;;;;4973769;28;20233;-73
2022/02/13 18:54:19;;;;;;;2.93;1.30;;;10.70;99.90;;;;;;4973788;28;20685;-75
2022/02/13 18:56:48;;;;;;;4.37;1.87;;;10.70;99.90;;;;;;4973881;28;20215;-72
2022/02/13 18:59:15;;;;;;;2.93;1.47;;;10.70;99.90;;;;;;4974012;28;20207;-71
2022/02/13 19:01:42;;;;;;;4.30;1.90;;;10.80;99.90;;;;;;4973656;28;20694;-74
2022/02/13 19:04:09;;;;;;;5.60;1.13;;;10.80;99.90;;;;;;4973755;28;20207;-74
2022/02/13 19:06:36;;;;;;;3.13;1.33;;;10.80;99.90;;;;;;4973638;28;20680;-75
2022/02/13 19:09:04;;;;;;;2.20;1.30;;;10.80;99.90;;;;;;4973913;28;20208;-71
2022/02/13 19:11:31;;;;;;;3.23;1.40;;;10.80;99.90;;;;;;4973886;28;20238;-74
2022/02/13 19:14:00;;;;;;;4.70;1.30;;;10.80;99.90;;;;;;4974461;28;20733;-74
2022/02/13 19:16:26;;;;;;;2.87;1.30;;;10.80;99.90;;;;;;4977280;28;20204;-74
2022/02/13 19:18:55;;;;;;;5.27;1.57;;;10.80;99.90;;;;;;4977499;28;20207;-74
2022/02/13 19:21:24;;;;;;;4.13;1.33;;;10.70;99.90;;;;;;4977385;28;20242;-73
2022/02/13 19:23:52;;;;;;;2.53;1.20;;;10.80;99.90;;;;;;4977056;28;20203;-71
2022/02/13 19:29:06;;;;;;;5.47;1.60;;;10.80;99.90;;;;;;4977126;28;20206;-71
2022/02/13 19:31:33;;;;;;;1.77;1.17;;;10.90;99.90;;;;;;4977081;28;20238;-74
2022/02/13 19:34:00;;;;;;;2.93;1.40;;;10.90;99.90;;;;;;4977067;28;20261;-71
2022/02/13 19:36:27;;;;;;;6.93;1.40;;;10.80;99.90;;;;;;4977116;28;20215;-74
2022/02/13 19:38:54;;;;;;;5.50;1.40;;;10.80;99.90;;;;;;4977348;28;20208;-74
2022/02/13 19:41:21;;;;;;;2.13;1.10;;;10.80;99.90;;;;;;4976796;28;20246;-73
2022/02/13 19:43:49;;;;;;;5.93;1.27;;;10.80;99.90;;;;;;4977318;28;20673;-75
2022/02/13 19:46:19;;;;;;;3.47;1.07;;;10.80;99.90;;;;;;4977179;28;20207;-72
2022/02/13 19:48:46;;;;;;;2.40;1.37;;;10.80;99.90;;;;;;4976878;28;20258;-75
2022/02/13 19:51:13;;;;;;;3.10;1.00;;;10.80;99.90;;;;;;4972855;28;20342;-73
2022/02/13 19:53:40;;;;;;;1.83;1.00;;;10.90;99.90;;;;;;4974931;28;20294;-73
2022/02/13 19:56:07;;;;;;;2.60;1.10;;;10.80;99.90;;;;;;4968211;28;20203;-74
2022/02/13 19:58:35;;;;;;;3.07;1.20;;;10.80;99.90;;;;;;4966600;28;20224;-70
2022/02/13 20:01:02;;;;;;;4.03;1.20;;;10.80;99.90;;;;;;4964688;28;20634;-74
2022/02/13 20:03:30;;;;;;;6.00;2.10;;;10.90;99.90;;;;;;4974685;28;20199;-75
2022/02/13 20:05:57;;;;;;;2.27;1.37;;;10.80;99.90;;;;;;4974930;28;20209;-70
2022/02/13 20:08:23;;;;;;;2.27;1.10;;;10.80;99.90;;;;;;4975386;28;20215;-73
2022/02/13 20:10:50;;;;;;;2.50;1.20;;;10.90;99.90;;;;;;4974915;28;20231;-70
2022/02/13 20:13:17;;;;;;;4.33;1.50;;;10.90;99.90;;;;;;4974437;28;20217;-70
2022/02/13 20:15:45;;;;;;;3.27;1.30;;;10.90;99.90;;;;;;4974751;28;20207;-72
2022/02/13 20:18:12;;;;;;;3.80;1.60;;;10.80;99.90;;;;;;4974932;28;20214;-73
2022/02/13 20:20:40;;;;;;;3.50;1.07;;;10.90;99.90;;;;;;4973621;28;20578;-73
2022/02/13 20:23:06;;;;;;;5.50;1.30;;;10.90;99.90;;;;;;4974435;28;20211;-71
2022/02/13 20:25:33;;;;;;;4.97;1.30;;;10.90;99.90;;;;;;4974267;28;20666;-70
2022/02/13 20:28:01;;;;;;;6.67;1.20;;;10.90;99.90;;;;;;4975977;28;20217;-70
2022/02/13 20:30:27;;;;;;;3.37;1.10;;;10.90;99.90;;;;;;4970479;28;20290;-71
2022/02/13 20:32:54;;;;;;;8.07;1.40;;;11.00;99.90;;;;;;4957339;28;20203;-72
2022/02/13 20:35:21;;;;;;;2.90;1.33;;;10.90;99.90;;;;;;4961695;28;20227;-71
2022/02/13 20:37:50;;;;;;;3.20;1.13;;;10.90;99.90;;;;;;4970463;28;20210;-71
2022/02/13 20:40:17;;;;;;;3.00;1.30;;;10.90;99.90;;;;;;4969641;28;20214;-70
2022/02/13 20:42:46;;;;;;;2.30;1.00;;;10.90;99.90;;;;;;4974996;28;20718;-72
2022/02/13 20:45:13;;;;;;;5.63;1.50;;;11.00;99.90;;;;;;4956100;28;20208;-72
2022/02/13 20:47:40;;;;;;;3.23;1.17;;;11.00;99.90;;;;;;4962752;28;20195;-72
2022/02/13 20:50:07;;;;;;;3.10;1.00;;;10.90;99.90;;;;;;4975054;28;20269;-72
2022/02/13 20:52:34;;;;;;;3.87;1.13;;;11.00;99.90;;;;;;4970723;28;20230;-71
2022/02/13 20:55:03;;;;;;;2.90;1.40;;;11.00;99.90;;;;;;4964758;28;20200;-71
2022/02/13 20:57:30;;;;;;;2.27;1.10;;;11.00;99.90;;;;;;4961980;28;20204;-70
2022/02/13 20:59:57;;;;;;;3.00;1.20;;;11.00;99.90;;;;;;4955916;28;20303;-71
2022/02/13 21:02:23;;;;;;;3.97;1.50;;;11.00;99.90;;;;;;4975052;28;20651;-72
2022/02/13 21:04:50;;;;;;;2.60;1.40;;;10.90;99.90;;;;;;4975309;28;20211;-70
2022/02/13 21:07:18;;;;;;;5.60;1.63;;;10.90;99.90;;;;;;4974940;28;20702;-69
2022/02/13 21:09:45;;;;;;;3.97;1.20;;;10.90;99.90;;;;;;4975092;28;20302;-70
2022/02/13 21:12:14;;;;;;;1.30;0.90;;;10.80;99.90;;;;;;4973984;28;20227;-69
2022/02/13 21:14:41;;;;;;;3.07;1.43;;;10.80;99.90;;;;;;4956074;28;20211;-71
2022/02/13 21:17:08;;;;;;;2.10;1.20;;;10.90;99.90;;;;;;4955465;28;20208;-71
2022/02/13 21:19:35;;;;;;;4.77;1.43;;;11.00;99.90;;;;;;4955104;28;20210;-70
2022/02/13 21:22:01;;;;;;;5.13;1.50;;;11.00;99.90;;;;;;4954921;28;20696;-69
2022/02/13 21:24:28;;;;;;;2.23;1.37;;;11.00;99.90;;;;;;4964006;28;20206;-70
2022/02/13 21:26:55;;;;;;;2.23;1.10;;;11.00;99.90;;;;;;4974764;28;20203;-70
2022/02/13 21:29:24;;;;;;;2.40;1.30;;;11.00;99.90;;;;;;4974642;28;20203;-70
2022/02/13 21:31:51;;;;;;;3.07;1.20;;;11.00;99.90;;;;;;4974020;28;20234;-71
2022/02/13 21:34:18;;;;;;;2.20;1.10;;;11.10;99.90;;;;;;4970097;28;20619;-70